Archival Weather

Chicago O'Hare International

Chicago, Illinois (KORD)

Report from: Thursday, June 23, 2022 8:51 PM CDT
Current time: Tuesday, August 16, 2022 1:50 AM CDT

Current weather
Weather history
Weather forecast

Temperature23.9°C (75.0°F)
Dew point8.3°C (46.9°F)
Winds 7 kts (3.6 m/s, 8.1 mph) Southeast (130°)
Visibility10 mi. (16.1 km)
Clouds Few clouds 25,000 ft. (7,620 m)
Altimeter30.00 in.Hg (1016 mB)
Relative humidity37 %
Density altitude1,102 ft. (336 m)
Sea-level pressure101.5 kPa (1015 mB, 29.98 in.Hg)
Remarks Automated weather observing station with precipitation discriminator
Flight conditions Visual Meteorological Conditions
Raw dataKORD 240151Z 13007KT 10SM FEW250 24/08 A3000 RMK AO2 SLP153 T02390083
An error has occurred. This application may no longer respond until reloaded. Reload 🗙